Rapid City, SD

7:46 PM MDT on April 20, 2015 (GMT -0600)
Rapid Valley | | Change Station
CLOSE
Current Station
Personal Weather Station
Location: Rapid City, SD
Elevation: 3176 ft
Nearby Weather Stations

Elev 3176 ft 44.07 °N, 103.16 °W | Updated 34 seconds ago

Partly Cloudy
Partly Cloudy
46.3 °F
Feels Like 45 °F
N
4.0
Wind Variable Wind from NE

Today
High -- | Low -- °F
--% Chance of Precip.
Yesterday
High -- | Low -- °F
Precip. -- in
6:01 AM 7:42 PM
Waxing Crescent, 7% visible
Pressure 29.88 in
Visibility 10.0 miles
Clouds Scattered Clouds 8500 ft
Windchill 45 °F
Dew Point 24 °F
Humidity 42%
Rainfall 0.00 in
Snow Depth Not available.
UV 0.0 out of 12
Pollen 10.20 out of 12
Air Quality Not available.
Flu Activity Sporadic
METAR KRAP 210052Z 01013KT 10SM SCT085 09/M06 A2983 RMK AO2 SLP116 T00941056

More Conditions Fewer Conditions

Pressure 29.88 in
Visibility 10.0 miles
Clouds Scattered Clouds 8500 ft
Windchill 45 °F
Dew Point 24 °F
Humidity 42%
Rainfall 0.00 in
Snow Depth Not available.
UV 0.0 out of 12
Pollen 10.20 out of 12
Air Quality Not available.
Flu Activity Sporadic
METAR KRAP 210052Z 01013KT 10SM SCT085 09/M06 A2983 RMK AO2 SLP116 T00941056

More Conditions Fewer Conditions

10-Day Weather Forecast

Almanac

Astronomy

Apr. 20, 2015 Rise Set
Actual Time
Civil Twilight
Nautical Twilight
Astronomical Twilight
Moon
Length of Visible Light
Length of Day
Tomorrow will be .
, % of the Moon is Illuminated

Today's Extremes

State Highs State Lows

Community

WunderPhotos

Upload Photos

1,815,276 photos uploaded!

WunderBlogs® & News

Nearby

Air Quality

  Air Quality AQ Index Pollutant
Not available.

Snow Depth

Station Depth Elevation

Earthquake Activity

City Distance Mag. Time & Date
Minimum magnitude displayed is 2.5.

Coastal Water Temperatures

Place Temperature

Stations

Nearby Weather Stations

Station Location Temp. Windchill Dew Point Humidity Wind Precip. Elev Updated Type